sensor_id;sensor_type;location;lat;lon;timestamp;pressure;altitude;pressure_sealevel;temperature
7882;BMP180;3986;41.884;23.466;2022-12-24T00:01:46;91887.00;;;-0.80
7882;BMP180;3986;41.884;23.466;2022-12-24T00:04:13;91889.00;;;-0.70
7882;BMP180;3986;41.884;23.466;2022-12-24T00:06:40;91885.00;;;-0.70
7882;BMP180;3986;41.884;23.466;2022-12-24T00:09:08;91889.00;;;-0.80
7882;BMP180;3986;41.884;23.466;2022-12-24T00:11:36;91888.00;;;-0.70
7882;BMP180;3986;41.884;23.466;2022-12-24T00:14:04;91886.00;;;-0.70
7882;BMP180;3986;41.884;23.466;2022-12-24T00:16:30;91887.00;;;-0.70
7882;BMP180;3986;41.884;23.466;2022-12-24T00:18:57;91880.00;;;-0.80
7882;BMP180;3986;41.884;23.466;2022-12-24T00:21:24;91885.00;;;-0.80
7882;BMP180;3986;41.884;23.466;2022-12-24T00:23:51;91894.00;;;-0.60
7882;BMP180;3986;41.884;23.466;2022-12-24T00:26:18;91892.00;;;-0.60
7882;BMP180;3986;41.884;23.466;2022-12-24T00:28:46;91894.00;;;-0.50
7882;BMP180;3986;41.884;23.466;2022-12-24T00:31:15;91882.00;;;-0.70
7882;BMP180;3986;41.884;23.466;2022-12-24T00:33:44;91888.00;;;-0.80
7882;BMP180;3986;41.884;23.466;2022-12-24T00:36:11;91916.00;;;-0.70
7882;BMP180;3986;41.884;23.466;2022-12-24T00:38:38;91907.00;;;-0.60
7882;BMP180;3986;41.884;23.466;2022-12-24T00:41:07;91895.00;;;-0.60
7882;BMP180;3986;41.884;23.466;2022-12-24T00:43:50;91899.00;;;-0.40
7882;BMP180;3986;41.884;23.466;2022-12-24T00:46:17;91904.00;;;-0.50
7882;BMP180;3986;41.884;23.466;2022-12-24T00:48:44;91909.00;;;-0.70
7882;BMP180;3986;41.884;23.466;2022-12-24T00:51:10;91904.00;;;-0.70
7882;BMP180;3986;41.884;23.466;2022-12-24T00:53:37;91889.00;;;-0.80
7882;BMP180;3986;41.884;23.466;2022-12-24T00:56:05;91895.00;;;-1.00
7882;BMP180;3986;41.884;23.466;2022-12-24T00:58:32;91905.00;;;-1.10
7882;BMP180;3986;41.884;23.466;2022-12-24T01:01:00;91873.00;;;-0.80
7882;BMP180;3986;41.884;23.466;2022-12-24T01:03:27;91884.00;;;-1.00
7882;BMP180;3986;41.884;23.466;2022-12-24T01:06:00;91883.00;;;-0.80
7882;BMP180;3986;41.884;23.466;2022-12-24T01:08:25;91891.00;;;-0.80
7882;BMP180;3986;41.884;23.466;2022-12-24T01:10:52;91879.00;;;-0.70
7882;BMP180;3986;41.884;23.466;2022-12-24T01:13:19;91882.00;;;-1.00
7882;BMP180;3986;41.884;23.466;2022-12-24T01:15:46;91882.00;;;-1.00
7882;BMP180;3986;41.884;23.466;2022-12-24T01:18:14;91889.00;;;-1.00
7882;BMP180;3986;41.884;23.466;2022-12-24T01:20:42;91887.00;;;-0.90
7882;BMP180;3986;41.884;23.466;2022-12-24T01:23:08;91881.00;;;-0.80
7882;BMP180;3986;41.884;23.466;2022-12-24T01:25:36;91882.00;;;-0.80
7882;BMP180;3986;41.884;23.466;2022-12-24T01:28:03;91886.00;;;-0.90
7882;BMP180;3986;41.884;23.466;2022-12-24T01:30:30;91889.00;;;-1.30
7882;BMP180;3986;41.884;23.466;2022-12-24T01:32:57;91882.00;;;-1.20
7882;BMP180;3986;41.884;23.466;2022-12-24T01:35:25;91882.00;;;-1.10
7882;BMP180;3986;41.884;23.466;2022-12-24T01:37:52;91881.00;;;-1.10
7882;BMP180;3986;41.884;23.466;2022-12-24T01:40:18;91887.00;;;-1.20
7882;BMP180;3986;41.884;23.466;2022-12-24T01:43:14;91882.00;;;-1.30
7882;BMP180;3986;41.884;23.466;2022-12-24T01:45:54;91887.00;;;-1.30
7882;BMP180;3986;41.884;23.466;2022-12-24T01:48:30;91879.00;;;-1.30
7882;BMP180;3986;41.884;23.466;2022-12-24T01:51:03;91877.00;;;-1.30
7882;BMP180;3986;41.884;23.466;2022-12-24T01:53:34;91880.00;;;-1.40
7882;BMP180;3986;41.884;23.466;2022-12-24T01:56:04;91876.00;;;-1.30
7882;BMP180;3986;41.884;23.466;2022-12-24T01:58:33;91865.00;;;-1.10
7882;BMP180;3986;41.884;23.466;2022-12-24T02:01:01;91866.00;;;-1.20
7882;BMP180;3986;41.884;23.466;2022-12-24T02:03:28;91870.00;;;-1.20
7882;BMP180;3986;41.884;23.466;2022-12-24T02:05:57;91849.00;;;-1.30
7882;BMP180;3986;41.884;23.466;2022-12-24T02:08:26;91870.00;;;-1.50
7882;BMP180;3986;41.884;23.466;2022-12-24T02:11:09;91861.00;;;-1.80
7882;BMP180;3986;41.884;23.466;2022-12-24T02:13:36;91875.00;;;-1.60
7882;BMP180;3986;41.884;23.466;2022-12-24T02:16:09;91869.00;;;-1.70
7882;BMP180;3986;41.884;23.466;2022-12-24T02:18:45;91878.00;;;-1.70
7882;BMP180;3986;41.884;23.466;2022-12-24T02:21:50;91865.00;;;-1.50
7882;BMP180;3986;41.884;23.466;2022-12-24T02:27:21;91884.00;;;-1.60
7882;BMP180;3986;41.884;23.466;2022-12-24T02:32:57;91889.00;;;-1.50
7882;BMP180;3986;41.884;23.466;2022-12-24T02:35:36;91841.00;;;-1.40
7882;BMP180;3986;41.884;23.466;2022-12-24T02:38:08;91877.00;;;-1.60
7882;BMP180;3986;41.884;23.466;2022-12-24T02:40:40;91879.00;;;-1.50
7882;BMP180;3986;41.884;23.466;2022-12-24T02:43:11;91880.00;;;-1.30
7882;BMP180;3986;41.884;23.466;2022-12-24T02:45:43;91878.00;;;-1.30
7882;BMP180;3986;41.884;23.466;2022-12-24T02:48:14;91879.00;;;-1.40
7882;BMP180;3986;41.884;23.466;2022-12-24T02:50:54;91883.00;;;-1.30
7882;BMP180;3986;41.884;23.466;2022-12-24T02:53:21;91876.00;;;-1.50
7882;BMP180;3986;41.884;23.466;2022-12-24T02:55:56;91881.00;;;-1.40
7882;BMP180;3986;41.884;23.466;2022-12-24T02:58:36;91767.00;;;-1.50
7882;BMP180;3986;41.884;23.466;2022-12-24T03:01:13;91875.00;;;-1.70
7882;BMP180;3986;41.884;23.466;2022-12-24T03:03:53;91895.00;;;-1.70
7882;BMP180;3986;41.884;23.466;2022-12-24T03:06:26;91886.00;;;-1.70
7882;BMP180;3986;41.884;23.466;2022-12-24T03:08:59;91885.00;;;-1.70
7882;BMP180;3986;41.884;23.466;2022-12-24T03:11:27;91877.00;;;-1.80
7882;BMP180;3986;41.884;23.466;2022-12-24T03:13:56;91874.00;;;-1.90
7882;BMP180;3986;41.884;23.466;2022-12-24T03:16:27;91895.00;;;-1.80
7882;BMP180;3986;41.884;23.466;2022-12-24T03:18:54;91859.00;;;-1.90
7882;BMP180;3986;41.884;23.466;2022-12-24T03:21:26;91864.00;;;-2.00
7882;BMP180;3986;41.884;23.466;2022-12-24T03:23:53;91852.00;;;-2.00
7882;BMP180;3986;41.884;23.466;2022-12-24T03:26:21;91853.00;;;-2.00
7882;BMP180;3986;41.884;23.466;2022-12-24T03:28:49;91855.00;;;-2.20
7882;BMP180;3986;41.884;23.466;2022-12-24T03:31:16;91855.00;;;-2.00
7882;BMP180;3986;41.884;23.466;2022-12-24T03:33:45;91857.00;;;-2.20
7882;BMP180;3986;41.884;23.466;2022-12-24T03:36:13;91851.00;;;-2.10
7882;BMP180;3986;41.884;23.466;2022-12-24T03:38:40;91846.00;;;-1.90
7882;BMP180;3986;41.884;23.466;2022-12-24T03:41:07;91861.00;;;-1.90
7882;BMP180;3986;41.884;23.466;2022-12-24T03:43:34;91843.00;;;-2.10
7882;BMP180;3986;41.884;23.466;2022-12-24T03:46:03;91858.00;;;-2.10
7882;BMP180;3986;41.884;23.466;2022-12-24T03:48:32;91843.00;;;-2.00
7882;BMP180;3986;41.884;23.466;2022-12-24T03:51:00;91851.00;;;-2.20
7882;BMP180;3986;41.884;23.466;2022-12-24T03:53:27;91846.00;;;-2.00
7882;BMP180;3986;41.884;23.466;2022-12-24T03:55:54;91847.00;;;-2.10
7882;BMP180;3986;41.884;23.466;2022-12-24T03:58:21;91843.00;;;-2.20
7882;BMP180;3986;41.884;23.466;2022-12-24T04:00:47;91837.00;;;-2.00
7882;BMP180;3986;41.884;23.466;2022-12-24T04:03:14;91842.00;;;-1.90
7882;BMP180;3986;41.884;23.466;2022-12-24T04:05:41;91844.00;;;-2.00
7882;BMP180;3986;41.884;23.466;2022-12-24T04:08:09;91840.00;;;-1.90
7882;BMP180;3986;41.884;23.466;2022-12-24T04:10:36;91846.00;;;-1.90
7882;BMP180;3986;41.884;23.466;2022-12-24T04:13:03;91843.00;;;-1.90
7882;BMP180;3986;41.884;23.466;2022-12-24T04:15:29;91838.00;;;-2.00
7882;BMP180;3986;41.884;23.466;2022-12-24T04:17:56;91832.00;;;-2.30
7882;BMP180;3986;41.884;23.466;2022-12-24T04:20:23;91845.00;;;-2.30
7882;BMP180;3986;41.884;23.466;2022-12-24T04:22:51;91840.00;;;-2.10
7882;BMP180;3986;41.884;23.466;2022-12-24T04:25:19;91844.00;;;-2.10
7882;BMP180;3986;41.884;23.466;2022-12-24T04:27:46;91840.00;;;-2.30
7882;BMP180;3986;41.884;23.466;2022-12-24T04:30:13;91803.00;;;-2.30
7882;BMP180;3986;41.884;23.466;2022-12-24T04:32:40;91841.00;;;-2.20
7882;BMP180;3986;41.884;23.466;2022-12-24T04:35:07;91842.00;;;-2.40
7882;BMP180;3986;41.884;23.466;2022-12-24T04:37:34;91855.00;;;-2.30
7882;BMP180;3986;41.884;23.466;2022-12-24T04:40:01;91847.00;;;-2.30
7882;BMP180;3986;41.884;23.466;2022-12-24T04:42:29;91845.00;;;-2.20
7882;BMP180;3986;41.884;23.466;2022-12-24T04:44:56;91842.00;;;-2.30
7882;BMP180;3986;41.884;23.466;2022-12-24T04:47:23;91843.00;;;-2.30
7882;BMP180;3986;41.884;23.466;2022-12-24T04:49:50;91859.00;;;-2.50
7882;BMP180;3986;41.884;23.466;2022-12-24T04:52:17;91858.00;;;-2.70
7882;BMP180;3986;41.884;23.466;2022-12-24T04:54:44;91857.00;;;-2.30
7882;BMP180;3986;41.884;23.466;2022-12-24T04:57:11;91852.00;;;-2.50
7882;BMP180;3986;41.884;23.466;2022-12-24T04:59:39;91855.00;;;-2.50
7882;BMP180;3986;41.884;23.466;2022-12-24T05:02:06;91842.00;;;-2.30
7882;BMP180;3986;41.884;23.466;2022-12-24T05:04:33;91851.00;;;-2.10
7882;BMP180;3986;41.884;23.466;2022-12-24T05:07:00;91864.00;;;-2.10
7882;BMP180;3986;41.884;23.466;2022-12-24T05:09:27;91857.00;;;-2.10
7882;BMP180;3986;41.884;23.466;2022-12-24T05:11:53;91828.00;;;-2.00
7882;BMP180;3986;41.884;23.466;2022-12-24T05:14:20;91842.00;;;-2.10
7882;BMP180;3986;41.884;23.466;2022-12-24T05:16:48;91840.00;;;-2.20
7882;BMP180;3986;41.884;23.466;2022-12-24T05:19:15;91856.00;;;-2.20
7882;BMP180;3986;41.884;23.466;2022-12-24T05:21:42;91856.00;;;-2.10
7882;BMP180;3986;41.884;23.466;2022-12-24T05:24:09;91858.00;;;-2.10
7882;BMP180;3986;41.884;23.466;2022-12-24T05:26:55;91858.00;;;-2.10
7882;BMP180;3986;41.884;23.466;2022-12-24T05:29:24;91855.00;;;-2.30
7882;BMP180;3986;41.884;23.466;2022-12-24T05:31:52;91863.00;;;-2.20
7882;BMP180;3986;41.884;23.466;2022-12-24T05:34:19;91863.00;;;-2.30
7882;BMP180;3986;41.884;23.466;2022-12-24T05:36:46;91857.00;;;-2.60
7882;BMP180;3986;41.884;23.466;2022-12-24T05:39:15;91854.00;;;-2.60
7882;BMP180;3986;41.884;23.466;2022-12-24T05:41:42;91855.00;;;-2.50
7882;BMP180;3986;41.884;23.466;2022-12-24T05:44:09;91679.00;;;-2.50
7882;BMP180;3986;41.884;23.466;2022-12-24T05:46:36;91861.00;;;-2.50
7882;BMP180;3986;41.884;23.466;2022-12-24T05:49:04;91851.00;;;-2.50
7882;BMP180;3986;41.884;23.466;2022-12-24T05:51:31;91858.00;;;-2.60
7882;BMP180;3986;41.884;23.466;2022-12-24T05:53:58;91861.00;;;-2.40
7882;BMP180;3986;41.884;23.466;2022-12-24T05:56:25;91863.00;;;-2.30
7882;BMP180;3986;41.884;23.466;2022-12-24T05:58:52;91823.00;;;-2.60
7882;BMP180;3986;41.884;23.466;2022-12-24T06:01:20;91717.00;;;-2.50
7882;BMP180;3986;41.884;23.466;2022-12-24T06:03:47;91857.00;;;-2.50
7882;BMP180;3986;41.884;23.466;2022-12-24T06:06:18;91864.00;;;-2.30
7882;BMP180;3986;41.884;23.466;2022-12-24T06:08:46;91859.00;;;-2.40
7882;BMP180;3986;41.884;23.466;2022-12-24T06:11:15;91883.00;;;-2.30
7882;BMP180;3986;41.884;23.466;2022-12-24T06:13:43;91873.00;;;-2.10
7882;BMP180;3986;41.884;23.466;2022-12-24T06:16:11;91871.00;;;-2.40
7882;BMP180;3986;41.884;23.466;2022-12-24T06:18:38;91861.00;;;-2.20
7882;BMP180;3986;41.884;23.466;2022-12-24T06:21:06;91866.00;;;-2.60
7882;BMP180;3986;41.884;23.466;2022-12-24T06:23:36;91870.00;;;-2.40
7882;BMP180;3986;41.884;23.466;2022-12-24T06:26:04;91736.00;;;-2.00
7882;BMP180;3986;41.884;23.466;2022-12-24T06:28:33;91869.00;;;-1.80
7882;BMP180;3986;41.884;23.466;2022-12-24T06:31:01;91838.00;;;-1.70
7882;BMP180;3986;41.884;23.466;2022-12-24T06:33:28;91876.00;;;-1.60
7882;BMP180;3986;41.884;23.466;2022-12-24T06:35:55;91878.00;;;-1.90
7882;BMP180;3986;41.884;23.466;2022-12-24T06:38:22;91874.00;;;-1.80
7882;BMP180;3986;41.884;23.466;2022-12-24T06:40:50;91870.00;;;-2.20
7882;BMP180;3986;41.884;23.466;2022-12-24T06:43:37;91866.00;;;-2.40
7882;BMP180;3986;41.884;23.466;2022-12-24T06:46:05;91874.00;;;-2.30
7882;BMP180;3986;41.884;23.466;2022-12-24T06:48:31;91880.00;;;-2.30
7882;BMP180;3986;41.884;23.466;2022-12-24T06:51:00;91879.00;;;-2.30
7882;BMP180;3986;41.884;23.466;2022-12-24T06:53:27;91869.00;;;-2.00
7882;BMP180;3986;41.884;23.466;2022-12-24T06:56:03;91915.00;;;-2.10
7882;BMP180;3986;41.884;23.466;2022-12-24T06:58:31;91901.00;;;-1.80
7882;BMP180;3986;41.884;23.466;2022-12-24T07:00:59;91889.00;;;-1.70
7882;BMP180;3986;41.884;23.466;2022-12-24T07:03:27;91887.00;;;-2.00
7882;BMP180;3986;41.884;23.466;2022-12-24T07:05:53;91878.00;;;-1.80
7882;BMP180;3986;41.884;23.466;2022-12-24T07:08:20;91879.00;;;-1.50
7882;BMP180;3986;41.884;23.466;2022-12-24T07:10:48;91808.00;;;-1.50
7882;BMP180;3986;41.884;23.466;2022-12-24T07:13:16;91883.00;;;-1.50
7882;BMP180;3986;41.884;23.466;2022-12-24T07:15:43;91892.00;;;-1.40
7882;BMP180;3986;41.884;23.466;2022-12-24T07:18:10;91888.00;;;-1.20
7882;BMP180;3986;41.884;23.466;2022-12-24T07:20:37;91882.00;;;-0.90
7882;BMP180;3986;41.884;23.466;2022-12-24T07:23:04;91892.00;;;-0.70
7882;BMP180;3986;41.884;23.466;2022-12-24T07:25:31;91892.00;;;-0.40
7882;BMP180;3986;41.884;23.466;2022-12-24T07:27:58;91883.00;;;-0.30
7882;BMP180;3986;41.884;23.466;2022-12-24T07:30:26;91886.00;;;-0.20
7882;BMP180;3986;41.884;23.466;2022-12-24T07:32:53;91893.00;;;0.10
7882;BMP180;3986;41.884;23.466;2022-12-24T07:35:19;91889.00;;;0.20
7882;BMP180;3986;41.884;23.466;2022-12-24T07:37:46;91889.00;;;0.70
7882;BMP180;3986;41.884;23.466;2022-12-24T07:40:13;91891.00;;;1.60
7882;BMP180;3986;41.884;23.466;2022-12-24T07:42:40;91882.00;;;3.10
7882;BMP180;3986;41.884;23.466;2022-12-24T07:45:08;91883.00;;;4.60
7882;BMP180;3986;41.884;23.466;2022-12-24T07:47:36;91881.00;;;4.80
7882;BMP180;3986;41.884;23.466;2022-12-24T07:50:04;91878.00;;;4.40
7882;BMP180;3986;41.884;23.466;2022-12-24T07:52:31;91884.00;;;4.50
7882;BMP180;3986;41.884;23.466;2022-12-24T07:54:58;91885.00;;;4.60
7882;BMP180;3986;41.884;23.466;2022-12-24T07:57:25;91884.00;;;4.20
7882;BMP180;3986;41.884;23.466;2022-12-24T07:59:52;91886.00;;;4.00
7882;BMP180;3986;41.884;23.466;2022-12-24T08:02:19;91880.00;;;4.00
7882;BMP180;3986;41.884;23.466;2022-12-24T08:04:47;91883.00;;;4.00
7882;BMP180;3986;41.884;23.466;2022-12-24T08:07:14;91892.00;;;4.30
7882;BMP180;3986;41.884;23.466;2022-12-24T08:09:41;91905.00;;;3.40
7882;BMP180;3986;41.884;23.466;2022-12-24T08:12:10;91909.00;;;3.20
7882;BMP180;3986;41.884;23.466;2022-12-24T08:14:37;91908.00;;;2.80
7882;BMP180;3986;41.884;23.466;2022-12-24T08:17:03;91920.00;;;2.30
7882;BMP180;3986;41.884;23.466;2022-12-24T08:19:30;91906.00;;;2.50
7882;BMP180;3986;41.884;23.466;2022-12-24T08:21:58;91913.00;;;2.80
7882;BMP180;3986;41.884;23.466;2022-12-24T08:24:25;91917.00;;;2.90
7882;BMP180;3986;41.884;23.466;2022-12-24T08:26:52;91917.00;;;3.10
7882;BMP180;3986;41.884;23.466;2022-12-24T08:29:20;91910.00;;;3.10
7882;BMP180;3986;41.884;23.466;2022-12-24T08:31:47;91915.00;;;3.20
7882;BMP180;3986;41.884;23.466;2022-12-24T08:34:14;91910.00;;;3.40
7882;BMP180;3986;41.884;23.466;2022-12-24T08:36:41;91919.00;;;3.40
7882;BMP180;3986;41.884;23.466;2022-12-24T08:39:09;91916.00;;;3.40
7882;BMP180;3986;41.884;23.466;2022-12-24T08:41:36;91810.00;;;3.70
7882;BMP180;3986;41.884;23.466;2022-12-24T08:44:03;91922.00;;;3.80
7882;BMP180;3986;41.884;23.466;2022-12-24T08:46:30;91920.00;;;3.90
7882;BMP180;3986;41.884;23.466;2022-12-24T08:48:57;91920.00;;;3.80
7882;BMP180;3986;41.884;23.466;2022-12-24T08:51:23;91913.00;;;3.90
7882;BMP180;3986;41.884;23.466;2022-12-24T08:53:50;91910.00;;;3.90
7882;BMP180;3986;41.884;23.466;2022-12-24T08:56:19;91912.00;;;4.50
7882;BMP180;3986;41.884;23.466;2022-12-24T08:58:46;91909.00;;;5.00
7882;BMP180;3986;41.884;23.466;2022-12-24T09:01:15;91917.00;;;4.90
7882;BMP180;3986;41.884;23.466;2022-12-24T09:03:42;91916.00;;;4.90
7882;BMP180;3986;41.884;23.466;2022-12-24T09:06:10;91903.00;;;5.40
7882;BMP180;3986;41.884;23.466;2022-12-24T09:08:37;91914.00;;;5.40
7882;BMP180;3986;41.884;23.466;2022-12-24T09:11:05;91903.00;;;5.40
7882;BMP180;3986;41.884;23.466;2022-12-24T09:13:34;91906.00;;;5.70
7882;BMP180;3986;41.884;23.466;2022-12-24T09:16:01;91899.00;;;5.30
7882;BMP180;3986;41.884;23.466;2022-12-24T09:18:28;91896.00;;;4.60
7882;BMP180;3986;41.884;23.466;2022-12-24T09:20:59;91891.00;;;4.40
7882;BMP180;3986;41.884;23.466;2022-12-24T09:23:26;91889.00;;;4.40
7882;BMP180;3986;41.884;23.466;2022-12-24T09:25:53;91904.00;;;4.50
7882;BMP180;3986;41.884;23.466;2022-12-24T09:28:20;91931.00;;;4.00
7882;BMP180;3986;41.884;23.466;2022-12-24T09:30:56;91837.00;;;4.70
7882;BMP180;3986;41.884;23.466;2022-12-24T09:33:23;91878.00;;;5.20
7882;BMP180;3986;41.884;23.466;2022-12-24T09:35:50;91871.00;;;8.00
7882;BMP180;3986;41.884;23.466;2022-12-24T09:38:17;91864.00;;;11.90
7882;BMP180;3986;41.884;23.466;2022-12-24T09:40:44;91881.00;;;15.40
7882;BMP180;3986;41.884;23.466;2022-12-24T09:43:14;91897.00;;;11.60
7882;BMP180;3986;41.884;23.466;2022-12-24T09:45:45;91815.00;;;6.30
7882;BMP180;3986;41.884;23.466;2022-12-24T09:48:17;91870.00;;;5.00
7882;BMP180;3986;41.884;23.466;2022-12-24T09:50:49;91877.00;;;6.10
7882;BMP180;3986;41.884;23.466;2022-12-24T09:53:21;91869.00;;;5.70
7882;BMP180;3986;41.884;23.466;2022-12-24T09:55:51;91872.00;;;5.30
7882;BMP180;3986;41.884;23.466;2022-12-24T09:58:22;91869.00;;;6.00
7882;BMP180;3986;41.884;23.466;2022-12-24T10:00:50;91886.00;;;5.90
7882;BMP180;3986;41.884;23.466;2022-12-24T10:03:19;91871.00;;;5.30
7882;BMP180;3986;41.884;23.466;2022-12-24T10:05:54;91871.00;;;6.70
7882;BMP180;3986;41.884;23.466;2022-12-24T10:08:29;91879.00;;;7.20
7882;BMP180;3986;41.884;23.466;2022-12-24T10:11:01;91859.00;;;7.80
7882;BMP180;3986;41.884;23.466;2022-12-24T10:13:40;91872.00;;;7.70
7882;BMP180;3986;41.884;23.466;2022-12-24T10:16:14;91863.00;;;7.60
7882;BMP180;3986;41.884;23.466;2022-12-24T10:18:54;91757.00;;;7.80
7882;BMP180;3986;41.884;23.466;2022-12-24T10:21:27;91845.00;;;7.90
7882;BMP180;3986;41.884;23.466;2022-12-24T10:24:02;91766.00;;;8.20
7882;BMP180;3986;41.884;23.466;2022-12-24T10:26:35;91838.00;;;6.70
7882;BMP180;3986;41.884;23.466;2022-12-24T10:29:11;91847.00;;;6.40
7882;BMP180;3986;41.884;23.466;2022-12-24T10:31:44;91863.00;;;7.50
7882;BMP180;3986;41.884;23.466;2022-12-24T10:34:18;91847.00;;;8.10
7882;BMP180;3986;41.884;23.466;2022-12-24T10:36:46;91760.00;;;8.40
7882;BMP180;3986;41.884;23.466;2022-12-24T10:39:17;91835.00;;;8.70
7882;BMP180;3986;41.884;23.466;2022-12-24T10:41:45;91852.00;;;8.80
7882;BMP180;3986;41.884;23.466;2022-12-24T10:44:15;91834.00;;;9.40
7882;BMP180;3986;41.884;23.466;2022-12-24T10:46:45;91763.00;;;9.80
7882;BMP180;3986;41.884;23.466;2022-12-24T10:49:15;91841.00;;;9.50
7882;BMP180;3986;41.884;23.466;2022-12-24T10:51:46;91845.00;;;9.70
7882;BMP180;3986;41.884;23.466;2022-12-24T10:54:16;91836.00;;;9.90
7882;BMP180;3986;41.884;23.466;2022-12-24T10:56:45;91818.00;;;9.80
7882;BMP180;3986;41.884;23.466;2022-12-24T10:59:25;91820.00;;;11.60
7882;BMP180;3986;41.884;23.466;2022-12-24T11:01:54;91828.00;;;12.60
7882;BMP180;3986;41.884;23.466;2022-12-24T11:04:24;91810.00;;;15.80
7882;BMP180;3986;41.884;23.466;2022-12-24T11:06:54;91808.00;;;13.70
7882;BMP180;3986;41.884;23.466;2022-12-24T11:09:23;91812.00;;;13.10
7882;BMP180;3986;41.884;23.466;2022-12-24T11:11:51;91807.00;;;15.40
7882;BMP180;3986;41.884;23.466;2022-12-24T11:14:19;91815.00;;;19.30
7882;BMP180;3986;41.884;23.466;2022-12-24T11:16:49;91726.00;;;18.90
7882;BMP180;3986;41.884;23.466;2022-12-24T11:19:19;91821.00;;;18.30
7882;BMP180;3986;41.884;23.466;2022-12-24T11:21:57;91837.00;;;16.90
7882;BMP180;3986;41.884;23.466;2022-12-24T11:24:26;91804.00;;;17.40
7882;BMP180;3986;41.884;23.466;2022-12-24T11:26:54;91801.00;;;21.70
7882;BMP180;3986;41.884;23.466;2022-12-24T11:29:25;91812.00;;;22.90
7882;BMP180;3986;41.884;23.466;2022-12-24T11:32:15;91796.00;;;20.70
7882;BMP180;3986;41.884;23.466;2022-12-24T11:34:43;91778.00;;;22.70
7882;BMP180;3986;41.884;23.466;2022-12-24T11:37:15;91797.00;;;21.80
7882;BMP180;3986;41.884;23.466;2022-12-24T11:39:45;91801.00;;;21.60
7882;BMP180;3986;41.884;23.466;2022-12-24T11:42:24;91794.00;;;16.50
7882;BMP180;3986;41.884;23.466;2022-12-24T11:44:53;91791.00;;;13.10
7882;BMP180;3986;41.884;23.466;2022-12-24T11:47:31;91791.00;;;12.70
7882;BMP180;3986;41.884;23.466;2022-12-24T11:50:18;91794.00;;;12.50
7882;BMP180;3986;41.884;23.466;2022-12-24T11:52:49;91793.00;;;12.50
7882;BMP180;3986;41.884;23.466;2022-12-24T11:55:21;91789.00;;;11.90
7882;BMP180;3986;41.884;23.466;2022-12-24T11:57:56;91789.00;;;11.50
7882;BMP180;3986;41.884;23.466;2022-12-24T12:00:24;91787.00;;;11.10
7882;BMP180;3986;41.884;23.466;2022-12-24T12:02:55;91792.00;;;10.80
7882;BMP180;3986;41.884;23.466;2022-12-24T12:05:26;91780.00;;;10.50
7882;BMP180;3986;41.884;23.466;2022-12-24T12:08:00;91774.00;;;10.10
7882;BMP180;3986;41.884;23.466;2022-12-24T12:10:30;91769.00;;;10.50
7882;BMP180;3986;41.884;23.466;2022-12-24T12:13:00;91774.00;;;10.50
7882;BMP180;3986;41.884;23.466;2022-12-24T12:15:32;91769.00;;;10.70
7882;BMP180;3986;41.884;23.466;2022-12-24T12:18:06;91767.00;;;10.30
7882;BMP180;3986;41.884;23.466;2022-12-24T12:20:37;91758.00;;;9.80
7882;BMP180;3986;41.884;23.466;2022-12-24T12:23:12;91758.00;;;9.80
7882;BMP180;3986;41.884;23.466;2022-12-24T12:25:44;91755.00;;;9.90
7882;BMP180;3986;41.884;23.466;2022-12-24T12:28:17;91743.00;;;9.50
7882;BMP180;3986;41.884;23.466;2022-12-24T12:30:54;91741.00;;;9.50
7882;BMP180;3986;41.884;23.466;2022-12-24T12:33:25;91756.00;;;10.20
7882;BMP180;3986;41.884;23.466;2022-12-24T12:35:57;91742.00;;;10.30
7882;BMP180;3986;41.884;23.466;2022-12-24T12:38:27;91739.00;;;10.10
7882;BMP180;3986;41.884;23.466;2022-12-24T12:41:22;91753.00;;;9.60
7882;BMP180;3986;41.884;23.466;2022-12-24T12:46:52;91772.00;;;8.50
7882;BMP180;3986;41.884;23.466;2022-12-24T12:49:31;91770.00;;;8.20
7882;BMP180;3986;41.884;23.466;2022-12-24T12:52:04;91762.00;;;8.40
7882;BMP180;3986;41.884;23.466;2022-12-24T12:54:49;91763.00;;;8.40
7882;BMP180;3986;41.884;23.466;2022-12-24T12:57:20;91769.00;;;8.70
7882;BMP180;3986;41.884;23.466;2022-12-24T12:59:52;91765.00;;;8.40
7882;BMP180;3986;41.884;23.466;2022-12-24T13:02:44;91769.00;;;8.80
7882;BMP180;3986;41.884;23.466;2022-12-24T13:05:44;91774.00;;;8.80
7882;BMP180;3986;41.884;23.466;2022-12-24T13:08:24;91776.00;;;8.80
7882;BMP180;3986;41.884;23.466;2022-12-24T13:11:12;91768.00;;;8.90
7882;BMP180;3986;41.884;23.466;2022-12-24T13:14:02;91760.00;;;8.80
7882;BMP180;3986;41.884;23.466;2022-12-24T13:20:00;91774.00;;;8.50
7882;BMP180;3986;41.884;23.466;2022-12-24T13:22:34;91762.00;;;8.40
7882;BMP180;3986;41.884;23.466;2022-12-24T13:25:02;91760.00;;;7.50
7882;BMP180;3986;41.884;23.466;2022-12-24T13:27:31;91763.00;;;8.60
7882;BMP180;3986;41.884;23.466;2022-12-24T13:30:01;91771.00;;;8.90
7882;BMP180;3986;41.884;23.466;2022-12-24T13:32:49;91758.00;;;8.70
7882;BMP180;3986;41.884;23.466;2022-12-24T13:35:29;91758.00;;;8.60
7882;BMP180;3986;41.884;23.466;2022-12-24T13:38:38;91750.00;;;8.30
7882;BMP180;3986;41.884;23.466;2022-12-24T13:44:28;91632.00;;;6.80
7882;BMP180;3986;41.884;23.466;2022-12-24T13:47:18;91786.00;;;7.00
7882;BMP180;3986;41.884;23.466;2022-12-24T13:49:48;91760.00;;;7.40
7882;BMP180;3986;41.884;23.466;2022-12-24T13:52:20;91765.00;;;7.00
7882;BMP180;3986;41.884;23.466;2022-12-24T13:54:59;91764.00;;;7.10
7882;BMP180;3986;41.884;23.466;2022-12-24T13:57:34;91787.00;;;7.50
7882;BMP180;3986;41.884;23.466;2022-12-24T14:00:07;91794.00;;;7.30
7882;BMP180;3986;41.884;23.466;2022-12-24T14:02:50;91794.00;;;7.40
7882;BMP180;3986;41.884;23.466;2022-12-24T14:05:21;91790.00;;;7.00
7882;BMP180;3986;41.884;23.466;2022-12-24T14:07:52;91794.00;;;7.20
7882;BMP180;3986;41.884;23.466;2022-12-24T14:10:23;91788.00;;;7.30
7882;BMP180;3986;41.884;23.466;2022-12-24T14:12:52;91782.00;;;6.80
7882;BMP180;3986;41.884;23.466;2022-12-24T14:18:26;91767.00;;;6.80
7882;BMP180;3986;41.884;23.466;2022-12-24T14:20:56;91771.00;;;6.50
7882;BMP180;3986;41.884;23.466;2022-12-24T14:24:22;91768.00;;;6.50
7882;BMP180;3986;41.884;23.466;2022-12-24T14:26:53;91769.00;;;6.70
7882;BMP180;3986;41.884;23.466;2022-12-24T14:29:25;91766.00;;;6.80
7882;BMP180;3986;41.884;23.466;2022-12-24T14:31:54;91776.00;;;6.90
7882;BMP180;3986;41.884;23.466;2022-12-24T14:34:21;91776.00;;;6.80
7882;BMP180;3986;41.884;23.466;2022-12-24T14:36:50;91773.00;;;6.60
7882;BMP180;3986;41.884;23.466;2022-12-24T14:39:23;91772.00;;;6.00
7882;BMP180;3986;41.884;23.466;2022-12-24T14:41:59;91789.00;;;6.20
7882;BMP180;3986;41.884;23.466;2022-12-24T14:44:35;91762.00;;;6.40
7882;BMP180;3986;41.884;23.466;2022-12-24T14:47:14;91765.00;;;6.30
7882;BMP180;3986;41.884;23.466;2022-12-24T14:49:57;91787.00;;;6.20
7882;BMP180;3986;41.884;23.466;2022-12-24T14:52:32;91785.00;;;5.60
7882;BMP180;3986;41.884;23.466;2022-12-24T14:55:34;91772.00;;;5.90
7882;BMP180;3986;41.884;23.466;2022-12-24T14:58:18;91791.00;;;6.00
7882;BMP180;3986;41.884;23.466;2022-12-24T15:00:46;91784.00;;;6.10
7882;BMP180;3986;41.884;23.466;2022-12-24T15:03:14;91794.00;;;6.00
7882;BMP180;3986;41.884;23.466;2022-12-24T15:05:42;91829.00;;;5.90